sensor_id;sensor_type;location;lat;lon;timestamp;P1;durP1;ratioP1;P2;durP2;ratioP2
32080;SDS011;18593;51.426;7.030;2023-09-30T00:02:08;15.20;;;4.75;;
32080;SDS011;18593;51.426;7.030;2023-09-30T00:04:39;13.32;;;4.47;;
32080;SDS011;18593;51.426;7.030;2023-09-30T00:07:06;14.43;;;4.65;;
32080;SDS011;18593;51.426;7.030;2023-09-30T00:09:35;13.20;;;4.82;;
32080;SDS011;18593;51.426;7.030;2023-09-30T00:12:02;17.58;;;5.22;;
32080;SDS011;18593;51.426;7.030;2023-09-30T00:14:30;16.45;;;4.70;;
32080;SDS011;18593;51.426;7.030;2023-09-30T00:16:57;15.07;;;4.40;;
32080;SDS011;18593;51.426;7.030;2023-09-30T00:19:25;11.48;;;4.63;;
32080;SDS011;18593;51.426;7.030;2023-09-30T00:21:55;12.38;;;4.65;;
32080;SDS011;18593;51.426;7.030;2023-09-30T00:24:22;10.55;;;4.13;;
32080;SDS011;18593;51.426;7.030;2023-09-30T00:26:50;14.02;;;4.90;;
32080;SDS011;18593;51.426;7.030;2023-09-30T00:29:18;12.95;;;4.38;;
32080;SDS011;18593;51.426;7.030;2023-09-30T00:31:45;12.40;;;4.97;;
32080;SDS011;18593;51.426;7.030;2023-09-30T00:34:14;13.70;;;3.95;;
32080;SDS011;18593;51.426;7.030;2023-09-30T00:36:42;14.75;;;4.53;;
32080;SDS011;18593;51.426;7.030;2023-09-30T00:39:12;13.00;;;4.43;;
32080;SDS011;18593;51.426;7.030;2023-09-30T00:41:39;11.70;;;4.07;;
32080;SDS011;18593;51.426;7.030;2023-09-30T00:44:07;11.57;;;4.30;;
32080;SDS011;18593;51.426;7.030;2023-09-30T00:46:35;16.50;;;4.75;;
32080;SDS011;18593;51.426;7.030;2023-09-30T00:49:06;12.25;;;4.45;;
32080;SDS011;18593;51.426;7.030;2023-09-30T00:51:35;13.48;;;4.05;;
32080;SDS011;18593;51.426;7.030;2023-09-30T00:54:03;11.85;;;4.50;;
32080;SDS011;18593;51.426;7.030;2023-09-30T00:56:33;14.38;;;4.25;;
32080;SDS011;18593;51.426;7.030;2023-09-30T00:59:06;16.02;;;5.10;;
32080;SDS011;18593;51.426;7.030;2023-09-30T01:01:34;13.13;;;4.15;;
32080;SDS011;18593;51.426;7.030;2023-09-30T01:04:01;16.52;;;4.53;;
32080;SDS011;18593;51.426;7.030;2023-09-30T01:06:30;13.50;;;5.15;;
32080;SDS011;18593;51.426;7.030;2023-09-30T01:08:59;13.23;;;4.40;;
32080;SDS011;18593;51.426;7.030;2023-09-30T01:11:26;11.57;;;4.65;;
32080;SDS011;18593;51.426;7.030;2023-09-30T01:13:56;11.45;;;4.75;;
32080;SDS011;18593;51.426;7.030;2023-09-30T01:16:24;15.02;;;4.82;;
32080;SDS011;18593;51.426;7.030;2023-09-30T01:18:51;15.35;;;5.43;;
32080;SDS011;18593;51.426;7.030;2023-09-30T01:21:20;14.98;;;4.97;;
32080;SDS011;18593;51.426;7.030;2023-09-30T01:23:50;13.23;;;4.57;;
32080;SDS011;18593;51.426;7.030;2023-09-30T01:26:18;15.45;;;4.93;;
32080;SDS011;18593;51.426;7.030;2023-09-30T01:28:47;14.02;;;4.43;;
32080;SDS011;18593;51.426;7.030;2023-09-30T01:31:15;17.58;;;4.78;;
32080;SDS011;18593;51.426;7.030;2023-09-30T01:33:42;17.67;;;5.25;;
32080;SDS011;18593;51.426;7.030;2023-09-30T01:36:10;15.07;;;4.80;;
32080;SDS011;18593;51.426;7.030;2023-09-30T01:38:38;11.48;;;4.10;;
32080;SDS011;18593;51.426;7.030;2023-09-30T01:41:07;9.63;;;4.22;;
32080;SDS011;18593;51.426;7.030;2023-09-30T01:43:35;13.07;;;4.82;;
32080;SDS011;18593;51.426;7.030;2023-09-30T01:46:03;15.32;;;4.68;;
32080;SDS011;18593;51.426;7.030;2023-09-30T01:48:31;12.63;;;4.75;;
32080;SDS011;18593;51.426;7.030;2023-09-30T01:50:58;11.70;;;4.75;;
32080;SDS011;18593;51.426;7.030;2023-09-30T01:53:26;11.57;;;4.32;;
32080;SDS011;18593;51.426;7.030;2023-09-30T01:55:54;11.77;;;4.50;;
32080;SDS011;18593;51.426;7.030;2023-09-30T01:58:23;10.95;;;4.78;;
32080;SDS011;18593;51.426;7.030;2023-09-30T02:00:51;12.45;;;4.50;;
32080;SDS011;18593;51.426;7.030;2023-09-30T02:03:19;14.40;;;5.25;;
32080;SDS011;18593;51.426;7.030;2023-09-30T02:05:47;13.63;;;4.68;;
32080;SDS011;18593;51.426;7.030;2023-09-30T02:08:15;14.23;;;4.80;;
32080;SDS011;18593;51.426;7.030;2023-09-30T02:10:43;12.82;;;5.05;;
32080;SDS011;18593;51.426;7.030;2023-09-30T02:13:11;16.88;;;4.90;;
32080;SDS011;18593;51.426;7.030;2023-09-30T02:15:41;13.80;;;5.30;;
32080;SDS011;18593;51.426;7.030;2023-09-30T02:18:08;15.52;;;5.25;;
32080;SDS011;18593;51.426;7.030;2023-09-30T02:20:37;14.27;;;5.18;;
32080;SDS011;18593;51.426;7.030;2023-09-30T02:23:08;14.43;;;4.97;;
32080;SDS011;18593;51.426;7.030;2023-09-30T02:25:36;11.82;;;5.20;;
32080;SDS011;18593;51.426;7.030;2023-09-30T02:28:04;16.02;;;5.35;;
32080;SDS011;18593;51.426;7.030;2023-09-30T02:30:33;12.00;;;4.75;;
32080;SDS011;18593;51.426;7.030;2023-09-30T02:33:04;15.30;;;5.30;;
32080;SDS011;18593;51.426;7.030;2023-09-30T02:35:32;13.05;;;4.90;;
32080;SDS011;18593;51.426;7.030;2023-09-30T02:38:00;9.75;;;4.22;;
32080;SDS011;18593;51.426;7.030;2023-09-30T02:40:28;13.55;;;4.80;;
32080;SDS011;18593;51.426;7.030;2023-09-30T02:42:56;12.50;;;5.18;;
32080;SDS011;18593;51.426;7.030;2023-09-30T02:45:23;12.55;;;4.95;;
32080;SDS011;18593;51.426;7.030;2023-09-30T02:47:51;14.65;;;5.03;;
32080;SDS011;18593;51.426;7.030;2023-09-30T02:50:21;14.32;;;4.35;;
32080;SDS011;18593;51.426;7.030;2023-09-30T02:52:48;14.68;;;5.18;;
32080;SDS011;18593;51.426;7.030;2023-09-30T02:55:16;12.10;;;4.50;;
32080;SDS011;18593;51.426;7.030;2023-09-30T02:57:44;12.45;;;4.45;;
32080;SDS011;18593;51.426;7.030;2023-09-30T03:00:12;11.05;;;4.20;;
32080;SDS011;18593;51.426;7.030;2023-09-30T03:02:46;14.77;;;5.07;;
32080;SDS011;18593;51.426;7.030;2023-09-30T03:05:13;13.82;;;4.22;;
32080;SDS011;18593;51.426;7.030;2023-09-30T03:07:42;13.63;;;5.00;;
32080;SDS011;18593;51.426;7.030;2023-09-30T03:10:11;10.82;;;4.25;;
32080;SDS011;18593;51.426;7.030;2023-09-30T03:12:39;15.60;;;5.30;;
32080;SDS011;18593;51.426;7.030;2023-09-30T03:15:08;10.38;;;4.10;;
32080;SDS011;18593;51.426;7.030;2023-09-30T03:17:36;15.32;;;4.90;;
32080;SDS011;18593;51.426;7.030;2023-09-30T03:20:05;13.60;;;4.55;;
32080;SDS011;18593;51.426;7.030;2023-09-30T03:22:37;12.15;;;4.63;;
32080;SDS011;18593;51.426;7.030;2023-09-30T03:25:12;15.57;;;4.50;;
32080;SDS011;18593;51.426;7.030;2023-09-30T03:27:42;11.55;;;4.57;;
32080;SDS011;18593;51.426;7.030;2023-09-30T03:30:12;11.43;;;4.88;;
32080;SDS011;18593;51.426;7.030;2023-09-30T03:32:40;15.00;;;4.22;;
32080;SDS011;18593;51.426;7.030;2023-09-30T03:35:08;12.43;;;4.50;;
32080;SDS011;18593;51.426;7.030;2023-09-30T03:37:42;13.90;;;4.80;;
32080;SDS011;18593;51.426;7.030;2023-09-30T03:40:12;12.02;;;4.65;;
32080;SDS011;18593;51.426;7.030;2023-09-30T03:42:44;11.68;;;4.25;;
32080;SDS011;18593;51.426;7.030;2023-09-30T03:45:14;14.07;;;4.53;;
32080;SDS011;18593;51.426;7.030;2023-09-30T03:47:42;16.65;;;5.30;;
32080;SDS011;18593;51.426;7.030;2023-09-30T03:50:11;17.17;;;4.70;;
32080;SDS011;18593;51.426;7.030;2023-09-30T03:52:40;14.02;;;5.20;;
32080;SDS011;18593;51.426;7.030;2023-09-30T03:55:14;28.80;;;7.07;;
32080;SDS011;18593;51.426;7.030;2023-09-30T03:57:43;20.33;;;6.75;;
32080;SDS011;18593;51.426;7.030;2023-09-30T04:00:13;13.55;;;5.70;;
32080;SDS011;18593;51.426;7.030;2023-09-30T04:02:44;14.77;;;6.32;;
32080;SDS011;18593;51.426;7.030;2023-09-30T04:05:14;19.98;;;7.03;;
32080;SDS011;18593;51.426;7.030;2023-09-30T04:07:43;18.30;;;7.53;;
32080;SDS011;18593;51.426;7.030;2023-09-30T04:10:11;16.63;;;7.43;;
32080;SDS011;18593;51.426;7.030;2023-09-30T04:12:40;18.55;;;7.53;;
32080;SDS011;18593;51.426;7.030;2023-09-30T04:15:08;29.05;;;9.18;;
32080;SDS011;18593;51.426;7.030;2023-09-30T04:17:38;19.75;;;8.10;;
32080;SDS011;18593;51.426;7.030;2023-09-30T04:20:06;21.35;;;7.55;;
32080;SDS011;18593;51.426;7.030;2023-09-30T04:22:41;19.05;;;8.02;;
32080;SDS011;18593;51.426;7.030;2023-09-30T04:25:15;20.83;;;7.93;;
32080;SDS011;18593;51.426;7.030;2023-09-30T04:27:44;18.87;;;8.00;;
32080;SDS011;18593;51.426;7.030;2023-09-30T04:30:13;20.90;;;8.65;;
32080;SDS011;18593;51.426;7.030;2023-09-30T04:32:41;23.63;;;8.55;;
32080;SDS011;18593;51.426;7.030;2023-09-30T04:35:09;20.52;;;8.98;;
32080;SDS011;18593;51.426;7.030;2023-09-30T04:37:38;20.20;;;8.80;;
32080;SDS011;18593;51.426;7.030;2023-09-30T04:40:06;24.40;;;9.18;;
32080;SDS011;18593;51.426;7.030;2023-09-30T04:42:42;20.63;;;8.00;;
32080;SDS011;18593;51.426;7.030;2023-09-30T04:45:12;25.15;;;9.70;;
32080;SDS011;18593;51.426;7.030;2023-09-30T04:47:41;22.40;;;10.00;;
32080;SDS011;18593;51.426;7.030;2023-09-30T04:50:10;22.85;;;9.73;;
32080;SDS011;18593;51.426;7.030;2023-09-30T04:52:42;20.85;;;10.13;;
32080;SDS011;18593;51.426;7.030;2023-09-30T04:55:10;18.08;;;8.48;;
32080;SDS011;18593;51.426;7.030;2023-09-30T04:57:42;21.03;;;9.87;;
32080;SDS011;18593;51.426;7.030;2023-09-30T05:00:11;22.90;;;9.55;;
32080;SDS011;18593;51.426;7.030;2023-09-30T05:02:40;20.48;;;10.48;;
32080;SDS011;18593;51.426;7.030;2023-09-30T05:05:12;20.13;;;9.48;;
32080;SDS011;18593;51.426;7.030;2023-09-30T05:07:40;19.80;;;9.93;;
32080;SDS011;18593;51.426;7.030;2023-09-30T05:10:08;20.83;;;10.98;;
32080;SDS011;18593;51.426;7.030;2023-09-30T05:12:38;21.67;;;9.52;;
32080;SDS011;18593;51.426;7.030;2023-09-30T05:15:12;18.50;;;9.60;;
32080;SDS011;18593;51.426;7.030;2023-09-30T05:17:41;22.65;;;9.45;;
32080;SDS011;18593;51.426;7.030;2023-09-30T05:20:10;25.65;;;10.52;;
32080;SDS011;18593;51.426;7.030;2023-09-30T05:22:38;19.95;;;10.15;;
32080;SDS011;18593;51.426;7.030;2023-09-30T05:25:06;22.75;;;9.70;;
32080;SDS011;18593;51.426;7.030;2023-09-30T05:27:34;23.50;;;11.30;;
32080;SDS011;18593;51.426;7.030;2023-09-30T05:30:03;23.42;;;10.27;;
32080;SDS011;18593;51.426;7.030;2023-09-30T05:32:34;24.80;;;12.18;;
32080;SDS011;18593;51.426;7.030;2023-09-30T05:35:04;24.20;;;11.55;;
32080;SDS011;18593;51.426;7.030;2023-09-30T05:37:39;27.02;;;12.10;;
32080;SDS011;18593;51.426;7.030;2023-09-30T05:40:07;24.83;;;12.68;;
32080;SDS011;18593;51.426;7.030;2023-09-30T05:42:45;25.90;;;13.52;;
32080;SDS011;18593;51.426;7.030;2023-09-30T05:45:13;25.90;;;12.55;;
32080;SDS011;18593;51.426;7.030;2023-09-30T05:47:42;26.45;;;12.88;;
32080;SDS011;18593;51.426;7.030;2023-09-30T05:50:11;31.75;;;13.48;;
32080;SDS011;18593;51.426;7.030;2023-09-30T05:52:43;29.63;;;13.18;;
32080;SDS011;18593;51.426;7.030;2023-09-30T05:55:11;30.38;;;13.68;;
32080;SDS011;18593;51.426;7.030;2023-09-30T05:57:41;27.50;;;13.27;;
32080;SDS011;18593;51.426;7.030;2023-09-30T06:00:11;32.60;;;13.35;;
32080;SDS011;18593;51.426;7.030;2023-09-30T06:02:47;27.08;;;13.45;;
32080;SDS011;18593;51.426;7.030;2023-09-30T06:05:16;22.15;;;12.18;;
32080;SDS011;18593;51.426;7.030;2023-09-30T06:07:45;26.70;;;12.00;;
32080;SDS011;18593;51.426;7.030;2023-09-30T06:10:13;27.23;;;11.73;;
32080;SDS011;18593;51.426;7.030;2023-09-30T06:12:44;28.00;;;12.03;;
32080;SDS011;18593;51.426;7.030;2023-09-30T06:15:12;25.92;;;12.30;;
32080;SDS011;18593;51.426;7.030;2023-09-30T06:17:41;22.90;;;11.50;;
32080;SDS011;18593;51.426;7.030;2023-09-30T06:20:12;28.23;;;12.15;;
32080;SDS011;18593;51.426;7.030;2023-09-30T06:22:43;27.77;;;11.68;;
32080;SDS011;18593;51.426;7.030;2023-09-30T06:25:13;22.73;;;10.32;;
32080;SDS011;18593;51.426;7.030;2023-09-30T06:27:42;22.48;;;10.27;;
32080;SDS011;18593;51.426;7.030;2023-09-30T06:30:10;33.92;;;11.93;;
32080;SDS011;18593;51.426;7.030;2023-09-30T06:32:39;23.77;;;11.02;;
32080;SDS011;18593;51.426;7.030;2023-09-30T06:35:07;24.30;;;10.90;;
32080;SDS011;18593;51.426;7.030;2023-09-30T06:37:38;25.30;;;10.88;;
32080;SDS011;18593;51.426;7.030;2023-09-30T06:40:07;23.57;;;11.07;;
32080;SDS011;18593;51.426;7.030;2023-09-30T06:42:37;20.55;;;10.00;;
32080;SDS011;18593;51.426;7.030;2023-09-30T06:45:07;23.10;;;11.30;;
32080;SDS011;18593;51.426;7.030;2023-09-30T06:47:35;26.27;;;10.02;;
32080;SDS011;18593;51.426;7.030;2023-09-30T06:50:07;24.27;;;10.30;;
32080;SDS011;18593;51.426;7.030;2023-09-30T06:52:39;30.45;;;12.07;;
32080;SDS011;18593;51.426;7.030;2023-09-30T06:55:09;23.92;;;10.18;;
32080;SDS011;18593;51.426;7.030;2023-09-30T06:57:39;28.77;;;11.30;;
32080;SDS011;18593;51.426;7.030;2023-09-30T07:00:07;24.92;;;10.40;;
32080;SDS011;18593;51.426;7.030;2023-09-30T07:02:37;25.70;;;11.10;;
32080;SDS011;18593;51.426;7.030;2023-09-30T07:05:05;26.58;;;11.40;;
32080;SDS011;18593;51.426;7.030;2023-09-30T07:07:34;25.08;;;11.60;;
32080;SDS011;18593;51.426;7.030;2023-09-30T07:10:03;28.30;;;10.52;;
32080;SDS011;18593;51.426;7.030;2023-09-30T07:12:34;24.92;;;10.77;;
32080;SDS011;18593;51.426;7.030;2023-09-30T07:15:02;28.55;;;10.05;;
32080;SDS011;18593;51.426;7.030;2023-09-30T07:17:31;26.45;;;10.35;;
32080;SDS011;18593;51.426;7.030;2023-09-30T07:20:00;27.30;;;10.70;;
32080;SDS011;18593;51.426;7.030;2023-09-30T07:22:27;21.10;;;10.20;;
32080;SDS011;18593;51.426;7.030;2023-09-30T07:24:56;26.75;;;11.23;;
32080;SDS011;18593;51.426;7.030;2023-09-30T07:27:24;29.95;;;11.18;;
32080;SDS011;18593;51.426;7.030;2023-09-30T07:29:52;23.55;;;10.40;;
32080;SDS011;18593;51.426;7.030;2023-09-30T07:32:19;24.60;;;10.73;;
32080;SDS011;18593;51.426;7.030;2023-09-30T07:34:48;27.10;;;11.65;;
32080;SDS011;18593;51.426;7.030;2023-09-30T07:37:16;24.42;;;10.40;;
32080;SDS011;18593;51.426;7.030;2023-09-30T07:39:46;23.70;;;10.85;;
32080;SDS011;18593;51.426;7.030;2023-09-30T07:42:13;24.80;;;10.18;;
32080;SDS011;18593;51.426;7.030;2023-09-30T07:44:43;24.20;;;11.30;;
32080;SDS011;18593;51.426;7.030;2023-09-30T07:47:10;27.50;;;11.57;;
32080;SDS011;18593;51.426;7.030;2023-09-30T07:49:40;27.30;;;11.82;;
32080;SDS011;18593;51.426;7.030;2023-09-30T07:52:07;26.77;;;10.93;;
32080;SDS011;18593;51.426;7.030;2023-09-30T07:54:40;29.95;;;11.57;;
32080;SDS011;18593;51.426;7.030;2023-09-30T07:57:08;25.88;;;10.95;;
32080;SDS011;18593;51.426;7.030;2023-09-30T07:59:37;23.73;;;10.70;;
32080;SDS011;18593;51.426;7.030;2023-09-30T08:02:06;27.40;;;11.57;;
32080;SDS011;18593;51.426;7.030;2023-09-30T08:04:34;26.70;;;12.30;;
32080;SDS011;18593;51.426;7.030;2023-09-30T08:07:01;29.27;;;11.80;;
32080;SDS011;18593;51.426;7.030;2023-09-30T08:09:44;29.52;;;11.93;;
32080;SDS011;18593;51.426;7.030;2023-09-30T08:12:11;25.88;;;10.02;;
32080;SDS011;18593;51.426;7.030;2023-09-30T08:14:39;25.15;;;10.88;;
32080;SDS011;18593;51.426;7.030;2023-09-30T08:17:11;27.55;;;10.23;;
32080;SDS011;18593;51.426;7.030;2023-09-30T08:19:39;31.17;;;11.18;;
32080;SDS011;18593;51.426;7.030;2023-09-30T08:22:08;25.65;;;9.93;;
32080;SDS011;18593;51.426;7.030;2023-09-30T08:24:35;21.92;;;9.35;;
32080;SDS011;18593;51.426;7.030;2023-09-30T08:27:03;26.52;;;10.05;;
32080;SDS011;18593;51.426;7.030;2023-09-30T08:29:32;22.25;;;9.75;;
32080;SDS011;18593;51.426;7.030;2023-09-30T08:32:02;23.92;;;9.95;;
32080;SDS011;18593;51.426;7.030;2023-09-30T08:34:30;24.23;;;10.23;;
32080;SDS011;18593;51.426;7.030;2023-09-30T08:36:58;19.42;;;9.38;;
32080;SDS011;18593;51.426;7.030;2023-09-30T08:39:27;25.25;;;9.52;;
32080;SDS011;18593;51.426;7.030;2023-09-30T08:41:55;23.75;;;10.68;;
32080;SDS011;18593;51.426;7.030;2023-09-30T08:44:23;30.77;;;10.60;;
32080;SDS011;18593;51.426;7.030;2023-09-30T08:46:51;21.35;;;10.00;;
32080;SDS011;18593;51.426;7.030;2023-09-30T08:49:21;25.50;;;10.50;;
32080;SDS011;18593;51.426;7.030;2023-09-30T08:51:53;24.00;;;11.18;;
32080;SDS011;18593;51.426;7.030;2023-09-30T08:54:25;25.42;;;11.25;;
32080;SDS011;18593;51.426;7.030;2023-09-30T08:56:52;22.20;;;11.38;;
32080;SDS011;18593;51.426;7.030;2023-09-30T08:59:21;25.92;;;11.48;;
32080;SDS011;18593;51.426;7.030;2023-09-30T09:01:50;22.42;;;10.38;;
32080;SDS011;18593;51.426;7.030;2023-09-30T09:04:18;21.13;;;10.10;;
32080;SDS011;18593;51.426;7.030;2023-09-30T09:06:46;21.85;;;9.98;;
32080;SDS011;18593;51.426;7.030;2023-09-30T09:09:15;23.63;;;9.40;;
32080;SDS011;18593;51.426;7.030;2023-09-30T09:11:44;22.83;;;10.15;;
32080;SDS011;18593;51.426;7.030;2023-09-30T09:14:12;28.25;;;11.48;;
32080;SDS011;18593;51.426;7.030;2023-09-30T09:16:53;21.95;;;10.73;;
32080;SDS011;18593;51.426;7.030;2023-09-30T09:19:22;21.33;;;9.68;;
32080;SDS011;18593;51.426;7.030;2023-09-30T09:21:53;22.50;;;10.43;;
32080;SDS011;18593;51.426;7.030;2023-09-30T09:24:33;21.73;;;9.70;;
32080;SDS011;18593;51.426;7.030;2023-09-30T09:27:04;21.38;;;8.98;;
32080;SDS011;18593;51.426;7.030;2023-09-30T09:29:34;20.77;;;8.50;;
32080;SDS011;18593;51.426;7.030;2023-09-30T09:32:06;23.77;;;8.82;;
32080;SDS011;18593;51.426;7.030;2023-09-30T09:34:35;18.52;;;8.60;;
32080;SDS011;18593;51.426;7.030;2023-09-30T09:37:12;19.67;;;8.32;;
32080;SDS011;18593;51.426;7.030;2023-09-30T09:39:53;21.20;;;7.38;;
32080;SDS011;18593;51.426;7.030;2023-09-30T09:42:25;22.00;;;8.80;;
32080;SDS011;18593;51.426;7.030;2023-09-30T09:44:56;18.52;;;8.18;;
32080;SDS011;18593;51.426;7.030;2023-09-30T09:47:24;15.23;;;7.03;;
32080;SDS011;18593;51.426;7.030;2023-09-30T09:49:53;15.40;;;6.70;;
32080;SDS011;18593;51.426;7.030;2023-09-30T09:52:25;22.45;;;7.70;;
32080;SDS011;18593;51.426;7.030;2023-09-30T09:54:59;14.88;;;6.18;;
32080;SDS011;18593;51.426;7.030;2023-09-30T09:57:28;14.90;;;5.55;;
32080;SDS011;18593;51.426;7.030;2023-09-30T09:59:58;12.45;;;4.40;;
32080;SDS011;18593;51.426;7.030;2023-09-30T10:02:30;12.95;;;4.72;;
32080;SDS011;18593;51.426;7.030;2023-09-30T10:04:59;11.75;;;4.78;;
32080;SDS011;18593;51.426;7.030;2023-09-30T10:07:29;13.68;;;5.00;;
32080;SDS011;18593;51.426;7.030;2023-09-30T10:10:04;14.80;;;4.90;;
32080;SDS011;18593;51.426;7.030;2023-09-30T10:12:38;10.65;;;4.25;;
32080;SDS011;18593;51.426;7.030;2023-09-30T10:18:07;12.93;;;5.18;;
32080;SDS011;18593;51.426;7.030;2023-09-30T10:20:36;14.70;;;5.13;;
32080;SDS011;18593;51.426;7.030;2023-09-30T10:23:26;14.03;;;5.37;;
32080;SDS011;18593;51.426;7.030;2023-09-30T10:28:58;12.27;;;4.60;;
32080;SDS011;18593;51.426;7.030;2023-09-30T10:31:39;11.45;;;4.50;;
32080;SDS011;18593;51.426;7.030;2023-09-30T10:34:26;14.40;;;4.55;;
32080;SDS011;18593;51.426;7.030;2023-09-30T10:36:53;11.13;;;3.60;;
32080;SDS011;18593;51.426;7.030;2023-09-30T10:42:44;10.50;;;4.13;;
32080;SDS011;18593;51.426;7.030;2023-09-30T10:51:13;10.73;;;4.43;;
32080;SDS011;18593;51.426;7.030;2023-09-30T10:53:45;7.93;;;3.53;;
32080;SDS011;18593;51.426;7.030;2023-09-30T10:56:18;10.18;;;3.72;;
32080;SDS011;18593;51.426;7.030;2023-09-30T10:58:48;12.93;;;4.38;;
32080;SDS011;18593;51.426;7.030;2023-09-30T11:01:19;14.13;;;4.20;;
32080;SDS011;18593;51.426;7.030;2023-09-30T11:03:50;10.75;;;4.03;;
32080;SDS011;18593;51.426;7.030;2023-09-30T11:06:28;8.40;;;3.92;;
32080;SDS011;18593;51.426;7.030;2023-09-30T11:08:56;15.52;;;4.72;;
32080;SDS011;18593;51.426;7.030;2023-09-30T11:11:34;15.80;;;4.90;;
32080;SDS011;18593;51.426;7.030;2023-09-30T11:14:03;8.20;;;3.97;;
32080;SDS011;18593;51.426;7.030;2023-09-30T11:16:44;9.90;;;3.90;;
32080;SDS011;18593;51.426;7.030;2023-09-30T11:19:11;8.00;;;3.60;;
32080;SDS011;18593;51.426;7.030;2023-09-30T11:21:40;16.02;;;4.80;;
32080;SDS011;18593;51.426;7.030;2023-09-30T11:24:09;9.55;;;4.15;;
32080;SDS011;18593;51.426;7.030;2023-09-30T11:26:46;13.52;;;4.57;;
32080;SDS011;18593;51.426;7.030;2023-09-30T11:29:14;14.43;;;4.38;;
32080;SDS011;18593;51.426;7.030;2023-09-30T11:31:46;16.20;;;4.72;;
32080;SDS011;18593;51.426;7.030;2023-09-30T11:34:16;10.25;;;4.10;;
32080;SDS011;18593;51.426;7.030;2023-09-30T11:36:47;12.75;;;3.85;;
32080;SDS011;18593;51.426;7.030;2023-09-30T11:39:26;10.80;;;3.92;;
32080;SDS011;18593;51.426;7.030;2023-09-30T11:41:55;12.27;;;4.10;;
32080;SDS011;18593;51.426;7.030;2023-09-30T11:44:26;13.50;;;4.47;;
32080;SDS011;18593;51.426;7.030;2023-09-30T11:46:58;15.13;;;4.47;;
32080;SDS011;18593;51.426;7.030;2023-09-30T11:49:30;13.35;;;4.07;;
32080;SDS011;18593;51.426;7.030;2023-09-30T11:52:00;13.82;;;3.85;;
32080;SDS011;18593;51.426;7.030;2023-09-30T11:54:30;10.57;;;3.22;;
32080;SDS011;18593;51.426;7.030;2023-09-30T11:57:02;10.55;;;3.72;;
32080;SDS011;18593;51.426;7.030;2023-09-30T11:59:30;9.38;;;3.45;;
32080;SDS011;18593;51.426;7.030;2023-09-30T12:01:59;9.15;;;3.50;;
32080;SDS011;18593;51.426;7.030;2023-09-30T12:04:26;11.15;;;3.70;;
32080;SDS011;18593;51.426;7.030;2023-09-30T12:06:55;10.55;;;3.70;;
32080;SDS011;18593;51.426;7.030;2023-09-30T12:09:23;13.63;;;4.40;;
32080;SDS011;18593;51.426;7.030;2023-09-30T12:11:52;8.50;;;3.50;;
32080;SDS011;18593;51.426;7.030;2023-09-30T12:14:20;7.45;;;3.33;;
32080;SDS011;18593;51.426;7.030;2023-09-30T12:16:49;11.23;;;3.85;;
32080;SDS011;18593;51.426;7.030;2023-09-30T12:19:18;9.73;;;3.42;;
32080;SDS011;18593;51.426;7.030;2023-09-30T12:21:47;10.00;;;3.80;;
32080;SDS011;18593;51.426;7.030;2023-09-30T12:24:16;10.07;;;4.35;;
32080;SDS011;18593;51.426;7.030;2023-09-30T12:26:48;10.68;;;3.97;;
32080;SDS011;18593;51.426;7.030;2023-09-30T12:29:18;11.40;;;4.38;;
32080;SDS011;18593;51.426;7.030;2023-09-30T12:31:49;10.13;;;3.85;;
32080;SDS011;18593;51.426;7.030;2023-09-30T12:34:33;12.52;;;4.57;;
32080;SDS011;18593;51.426;7.030;2023-09-30T12:37:05;9.68;;;4.00;;
32080;SDS011;18593;51.426;7.030;2023-09-30T12:39:33;10.32;;;4.55;;
32080;SDS011;18593;51.426;7.030;2023-09-30T12:42:01;11.93;;;3.85;;
32080;SDS011;18593;51.426;7.030;2023-09-30T12:44:34;8.40;;;3.70;;
32080;SDS011;18593;51.426;7.030;2023-09-30T12:47:01;9.65;;;4.05;;
32080;SDS011;18593;51.426;7.030;2023-09-30T12:49:30;9.45;;;3.70;;
32080;SDS011;18593;51.426;7.030;2023-09-30T12:51:59;9.38;;;3.75;;
32080;SDS011;18593;51.426;7.030;2023-09-30T12:54:27;11.40;;;3.42;;
32080;SDS011;18593;51.426;7.030;2023-09-30T12:56:54;12.02;;;4.10;;
32080;SDS011;18593;51.426;7.030;2023-09-30T12:59:22;11.35;;;3.40;;
32080;SDS011;18593;51.426;7.030;2023-09-30T13:01:54;9.43;;;3.25;;
32080;SDS011;18593;51.426;7.030;2023-09-30T13:04:21;9.30;;;3.35;;
32080;SDS011;18593;51.426;7.030;2023-09-30T13:06:51;8.50;;;3.50;;
32080;SDS011;18593;51.426;7.030;2023-09-30T13:09:19;7.70;;;3.58;;
32080;SDS011;18593;51.426;7.030;2023-09-30T13:11:49;10.88;;;3.47;;
32080;SDS011;18593;51.426;7.030;2023-09-30T13:14:26;11.18;;;3.60;;
32080;SDS011;18593;51.426;7.030;2023-09-30T13:16:59;12.63;;;3.72;;
32080;SDS011;18593;51.426;7.030;2023-09-30T13:19:29;9.80;;;3.25;;
32080;SDS011;18593;51.426;7.030;2023-09-30T13:21:59;10.05;;;3.72;;
32080;SDS011;18593;51.426;7.030;2023-09-30T13:24:27;11.65;;;3.83;;
32080;SDS011;18593;51.426;7.030;2023-09-30T13:26:54;8.80;;;3.42;;
32080;SDS011;18593;51.426;7.030;2023-09-30T13:29:22;10.57;;;3.55;;
32080;SDS011;18593;51.426;7.030;2023-09-30T13:31:50;10.52;;;3.50;;
32080;SDS011;18593;51.426;7.030;2023-09-30T13:34:17;10.05;;;3.30;;
32080;SDS011;18593;51.426;7.030;2023-09-30T13:36:44;9.15;;;3.45;;
32080;SDS011;18593;51.426;7.030;2023-09-30T13:39:13;14.63;;;3.78;;
32080;SDS011;18593;51.426;7.030;2023-09-30T13:41:43;11.02;;;3.75;;
32080;SDS011;18593;51.426;7.030;2023-09-30T13:44:12;8.27;;;3.10;;
32080;SDS011;18593;51.426;7.030;2023-09-30T13:46:39;9.30;;;3.55;;
32080;SDS011;18593;51.426;7.030;2023-09-30T13:49:07;10.65;;;3.10;;
32080;SDS011;18593;51.426;7.030;2023-09-30T13:51:37;8.55;;;3.35;;
32080;SDS011;18593;51.426;7.030;2023-09-30T13:54:05;11.10;;;3.35;;
32080;SDS011;18593;51.426;7.030;2023-09-30T13:56:35;11.02;;;3.70;;
32080;SDS011;18593;51.426;7.030;2023-09-30T13:59:02;10.68;;;3.75;;
32080;SDS011;18593;51.426;7.030;2023-09-30T14:01:30;9.88;;;3.80;;
32080;SDS011;18593;51.426;7.030;2023-09-30T14:03:59;9.20;;;3.33;;
32080;SDS011;18593;51.426;7.030;2023-09-30T14:06:27;12.25;;;3.38;;
32080;SDS011;18593;51.426;7.030;2023-09-30T14:08:55;8.45;;;3.25;;
32080;SDS011;18593;51.426;7.030;2023-09-30T14:11:23;9.02;;;3.15;;
32080;SDS011;18593;51.426;7.030;2023-09-30T14:13:52;8.75;;;3.22;;
32080;SDS011;18593;51.426;7.030;2023-09-30T14:16:20;10.95;;;3.60;;
32080;SDS011;18593;51.426;7.030;2023-09-30T14:18:47;7.13;;;3.05;;
32080;SDS011;18593;51.426;7.030;2023-09-30T14:21:16;9.68;;;3.47;;
32080;SDS011;18593;51.426;7.030;2023-09-30T14:23:45;8.80;;;3.08;;
32080;SDS011;18593;51.426;7.030;2023-09-30T14:26:12;9.82;;;3.20;;
32080;SDS011;18593;51.426;7.030;2023-09-30T14:28:40;9.32;;;3.47;;
32080;SDS011;18593;51.426;7.030;2023-09-30T14:31:09;10.02;;;3.50;;
32080;SDS011;18593;51.426;7.030;2023-09-30T14:33:37;9.60;;;3.50;;
32080;SDS011;18593;51.426;7.030;2023-09-30T14:36:04;9.40;;;3.75;;
32080;SDS011;18593;51.426;7.030;2023-09-30T14:38:32;12.98;;;4.00;;
32080;SDS011;18593;51.426;7.030;2023-09-30T14:41:06;8.00;;;3.47;;
32080;SDS011;18593;51.426;7.030;2023-09-30T14:43:35;7.65;;;3.50;;
32080;SDS011;18593;51.426;7.030;2023-09-30T14:46:03;12.48;;;3.78;;
32080;SDS011;18593;51.426;7.030;2023-09-30T14:48:33;10.95;;;3.22;;
32080;SDS011;18593;51.426;7.030;2023-09-30T14:51:01;10.10;;;3.35;;
32080;SDS011;18593;51.426;7.030;2023-09-30T14:53:29;10.15;;;3.97;;
32080;SDS011;18593;51.426;7.030;2023-09-30T14:55:57;11.55;;;3.63;;
32080;SDS011;18593;51.426;7.030;2023-09-30T14:58:24;8.20;;;3.38;;
32080;SDS011;18593;51.426;7.030;2023-09-30T15:00:53;8.65;;;3.35;;
32080;SDS011;18593;51.426;7.030;2023-09-30T15:03:20;10.20;;;3.28;;